sensor_id;sensor_type;location;lat;lon;timestamp;temperature;humidity
67194;DHT22;54121;53.508;49.422;2023-05-21T00:00:29;18.90;50.10
67194;DHT22;54121;53.508;49.422;2023-05-21T00:02:56;19.60;50.50
67194;DHT22;54121;53.508;49.422;2023-05-21T00:05:23;19.00;50.00
67194;DHT22;54121;53.508;49.422;2023-05-21T00:07:50;19.00;50.00
67194;DHT22;54121;53.508;49.422;2023-05-21T00:10:18;19.00;50.10
67194;DHT22;54121;53.508;49.422;2023-05-21T00:12:44;17.40;49.50
67194;DHT22;54121;53.508;49.422;2023-05-21T00:15:11;18.80;50.40
67194;DHT22;54121;53.508;49.422;2023-05-21T00:17:37;18.80;50.80
67194;DHT22;54121;53.508;49.422;2023-05-21T00:20:04;16.70;49.70
67194;DHT22;54121;53.508;49.422;2023-05-21T00:22:32;18.80;50.70
67194;DHT22;54121;53.508;49.422;2023-05-21T00:24:58;18.80;50.80
67194;DHT22;54121;53.508;49.422;2023-05-21T00:27:24;18.80;50.00
67194;DHT22;54121;53.508;49.422;2023-05-21T00:29:51;18.80;49.50
67194;DHT22;54121;53.508;49.422;2023-05-21T00:32:17;18.80;49.00
67194;DHT22;54121;53.508;49.422;2023-05-21T00:34:43;18.90;48.30
67194;DHT22;54121;53.508;49.422;2023-05-21T00:37:10;18.80;47.70
67194;DHT22;54121;53.508;49.422;2023-05-21T00:39:36;18.90;47.30
67194;DHT22;54121;53.508;49.422;2023-05-21T00:42:02;18.80;46.90
67194;DHT22;54121;53.508;49.422;2023-05-21T00:44:29;18.70;47.20
67194;DHT22;54121;53.508;49.422;2023-05-21T00:47:02;18.60;47.60
67194;DHT22;54121;53.508;49.422;2023-05-21T00:49:28;18.60;48.10
67194;DHT22;54121;53.508;49.422;2023-05-21T00:51:55;18.60;48.30
67194;DHT22;54121;53.508;49.422;2023-05-21T00:54:22;18.60;48.20
67194;DHT22;54121;53.508;49.422;2023-05-21T00:56:48;18.70;48.20
67194;DHT22;54121;53.508;49.422;2023-05-21T00:59:16;18.60;48.70
67194;DHT22;54121;53.508;49.422;2023-05-21T01:01:43;18.60;49.00
67194;DHT22;54121;53.508;49.422;2023-05-21T01:04:10;18.60;49.20
67194;DHT22;54121;53.508;49.422;2023-05-21T01:06:36;18.60;49.50
67194;DHT22;54121;53.508;49.422;2023-05-21T01:09:03;18.60;49.50
67194;DHT22;54121;53.508;49.422;2023-05-21T01:14:03;18.70;49.70
67194;DHT22;54121;53.508;49.422;2023-05-21T01:16:30;18.80;49.80
67194;DHT22;54121;53.508;49.422;2023-05-21T01:18:57;18.80;50.10
67194;DHT22;54121;53.508;49.422;2023-05-21T01:21:24;18.80;50.00
67194;DHT22;54121;53.508;49.422;2023-05-21T01:23:50;18.90;50.10
67194;DHT22;54121;53.508;49.422;2023-05-21T01:26:17;18.90;49.90
67194;DHT22;54121;53.508;49.422;2023-05-21T01:28:43;19.00;49.80
67194;DHT22;54121;53.508;49.422;2023-05-21T01:31:22;19.00;49.80
67194;DHT22;54121;53.508;49.422;2023-05-21T01:33:51;19.10;49.50
67194;DHT22;54121;53.508;49.422;2023-05-21T01:36:24;19.10;49.50
67194;DHT22;54121;53.508;49.422;2023-05-21T01:38:56;19.20;49.10
67194;DHT22;54121;53.508;49.422;2023-05-21T01:41:26;19.40;48.60
67194;DHT22;54121;53.508;49.422;2023-05-21T01:43:53;19.50;47.70
67194;DHT22;54121;53.508;49.422;2023-05-21T01:46:22;19.50;47.20
67194;DHT22;54121;53.508;49.422;2023-05-21T01:48:50;19.50;47.10
67194;DHT22;54121;53.508;49.422;2023-05-21T01:51:17;19.60;47.00
67194;DHT22;54121;53.508;49.422;2023-05-21T01:53:44;19.70;47.20
67194;DHT22;54121;53.508;49.422;2023-05-21T01:56:10;20.20;46.70
67194;DHT22;54121;53.508;49.422;2023-05-21T01:58:37;20.40;45.70
67194;DHT22;54121;53.508;49.422;2023-05-21T02:01:06;20.50;44.60
67194;DHT22;54121;53.508;49.422;2023-05-21T02:03:33;21.20;44.30
67194;DHT22;54121;53.508;49.422;2023-05-21T02:05:59;21.70;42.80
67194;DHT22;54121;53.508;49.422;2023-05-21T02:08:26;22.30;41.20
67194;DHT22;54121;53.508;49.422;2023-05-21T02:10:52;23.00;39.80
67194;DHT22;54121;53.508;49.422;2023-05-21T02:13:19;23.60;38.00
67194;DHT22;54121;53.508;49.422;2023-05-21T02:15:49;24.60;35.80
67194;DHT22;54121;53.508;49.422;2023-05-21T02:18:19;25.10;34.90
67194;DHT22;54121;53.508;49.422;2023-05-21T02:20:46;25.20;34.00
67194;DHT22;54121;53.508;49.422;2023-05-21T02:23:12;25.80;32.80
67194;DHT22;54121;53.508;49.422;2023-05-21T02:25:38;26.30;31.10
67194;DHT22;54121;53.508;49.422;2023-05-21T02:28:05;26.80;30.20
67194;DHT22;54121;53.508;49.422;2023-05-21T02:30:31;27.10;29.80
67194;DHT22;54121;53.508;49.422;2023-05-21T02:32:58;27.40;29.30
67194;DHT22;54121;53.508;49.422;2023-05-21T02:35:24;28.00;28.80
67194;DHT22;54121;53.508;49.422;2023-05-21T02:37:50;28.70;27.80
67194;DHT22;54121;53.508;49.422;2023-05-21T02:40:17;29.10;26.80
67194;DHT22;54121;53.508;49.422;2023-05-21T02:42:43;29.20;26.30
67194;DHT22;54121;53.508;49.422;2023-05-21T02:45:09;29.50;25.10
67194;DHT22;54121;53.508;49.422;2023-05-21T02:47:36;30.40;25.00
67194;DHT22;54121;53.508;49.422;2023-05-21T02:50:06;30.60;24.00
67194;DHT22;54121;53.508;49.422;2023-05-21T02:52:33;31.30;23.20
67194;DHT22;54121;53.508;49.422;2023-05-21T02:54:59;31.50;22.80
67194;DHT22;54121;53.508;49.422;2023-05-21T02:57:26;31.90;22.40
67194;DHT22;54121;53.508;49.422;2023-05-21T02:59:55;32.10;21.90
67194;DHT22;54121;53.508;49.422;2023-05-21T03:02:21;32.50;21.50
67194;DHT22;54121;53.508;49.422;2023-05-21T03:04:48;32.70;21.40
67194;DHT22;54121;53.508;49.422;2023-05-21T03:07:16;33.30;20.50
67194;DHT22;54121;53.508;49.422;2023-05-21T03:09:45;33.30;20.30
67194;DHT22;54121;53.508;49.422;2023-05-21T03:12:12;33.40;20.20
67194;DHT22;54121;53.508;49.422;2023-05-21T03:14:38;33.30;20.40
67194;DHT22;54121;53.508;49.422;2023-05-21T03:17:04;34.60;19.10
67194;DHT22;54121;53.508;49.422;2023-05-21T03:19:31;34.30;18.50
67194;DHT22;54121;53.508;49.422;2023-05-21T03:22:01;35.30;18.70
67194;DHT22;54121;53.508;49.422;2023-05-21T03:24:28;35.50;18.10
67194;DHT22;54121;53.508;49.422;2023-05-21T03:26:55;35.60;17.90
67194;DHT22;54121;53.508;49.422;2023-05-21T03:29:22;36.00;17.40
67194;DHT22;54121;53.508;49.422;2023-05-21T03:31:48;35.20;16.90
67194;DHT22;54121;53.508;49.422;2023-05-21T03:34:14;36.20;17.10
67194;DHT22;54121;53.508;49.422;2023-05-21T03:36:41;36.20;16.90
67194;DHT22;54121;53.508;49.422;2023-05-21T03:39:07;36.80;16.40
67194;DHT22;54121;53.508;49.422;2023-05-21T03:41:34;36.50;16.60
67194;DHT22;54121;53.508;49.422;2023-05-21T03:44:00;37.70;15.60
67194;DHT22;54121;53.508;49.422;2023-05-21T03:46:27;37.60;15.50
67194;DHT22;54121;53.508;49.422;2023-05-21T03:48:53;38.40;15.10
67194;DHT22;54121;53.508;49.422;2023-05-21T03:51:19;39.20;14.00
67194;DHT22;54121;53.508;49.422;2023-05-21T03:53:46;39.50;13.50
67194;DHT22;54121;53.508;49.422;2023-05-21T03:56:12;40.00;13.10
67194;DHT22;54121;53.508;49.422;2023-05-21T03:58:39;39.80;12.70
67194;DHT22;54121;53.508;49.422;2023-05-21T04:01:06;40.10;13.10
67194;DHT22;54121;53.508;49.422;2023-05-21T04:03:33;40.40;12.70
67194;DHT22;54121;53.508;49.422;2023-05-21T04:06:01;40.20;12.60
67194;DHT22;54121;53.508;49.422;2023-05-21T04:08:27;40.00;12.40
67194;DHT22;54121;53.508;49.422;2023-05-21T04:10:53;40.40;12.40
67194;DHT22;54121;53.508;49.422;2023-05-21T04:13:20;41.20;11.40
67194;DHT22;54121;53.508;49.422;2023-05-21T04:15:46;40.20;12.00
67194;DHT22;54121;53.508;49.422;2023-05-21T04:18:12;40.40;12.40
67194;DHT22;54121;53.508;49.422;2023-05-21T04:20:41;41.10;11.80
67194;DHT22;54121;53.508;49.422;2023-05-21T04:23:08;42.40;10.60
67194;DHT22;54121;53.508;49.422;2023-05-21T04:25:34;42.20;10.50
67194;DHT22;54121;53.508;49.422;2023-05-21T04:28:00;42.40;10.80
67194;DHT22;54121;53.508;49.422;2023-05-21T04:30:27;42.50;10.40
67194;DHT22;54121;53.508;49.422;2023-05-21T04:32:53;42.30;10.40
67194;DHT22;54121;53.508;49.422;2023-05-21T04:35:20;41.70;10.30
67194;DHT22;54121;53.508;49.422;2023-05-21T04:37:46;42.70;9.50
67194;DHT22;54121;53.508;49.422;2023-05-21T04:40:13;41.90;9.50
67194;DHT22;54121;53.508;49.422;2023-05-21T04:42:43;42.80;9.20
67194;DHT22;54121;53.508;49.422;2023-05-21T04:45:11;42.80;9.00
67194;DHT22;54121;53.508;49.422;2023-05-21T04:47:37;43.00;9.40
67194;DHT22;54121;53.508;49.422;2023-05-21T04:50:04;43.00;8.70
67194;DHT22;54121;53.508;49.422;2023-05-21T04:52:30;42.40;9.70
67194;DHT22;54121;53.508;49.422;2023-05-21T04:54:57;44.00;7.80
67194;DHT22;54121;53.508;49.422;2023-05-21T04:57:23;43.60;7.70
67194;DHT22;54121;53.508;49.422;2023-05-21T04:59:49;44.50;7.00
67194;DHT22;54121;53.508;49.422;2023-05-21T05:02:16;45.10;6.70
67194;DHT22;54121;53.508;49.422;2023-05-21T05:04:42;44.80;6.40
67194;DHT22;54121;53.508;49.422;2023-05-21T05:07:08;44.80;6.40
67194;DHT22;54121;53.508;49.422;2023-05-21T05:09:35;45.30;6.00
67194;DHT22;54121;53.508;49.422;2023-05-21T05:12:01;45.30;6.50
67194;DHT22;54121;53.508;49.422;2023-05-21T05:14:27;47.50;4.80
67194;DHT22;54121;53.508;49.422;2023-05-21T05:16:54;48.00;4.30
67194;DHT22;54121;53.508;49.422;2023-05-21T05:19:24;46.30;5.20
67194;DHT22;54121;53.508;49.422;2023-05-21T05:21:51;47.20;4.80
67194;DHT22;54121;53.508;49.422;2023-05-21T05:24:17;47.40;4.80
67194;DHT22;54121;53.508;49.422;2023-05-21T05:26:43;47.20;4.80
67194;DHT22;54121;53.508;49.422;2023-05-21T05:29:10;47.50;4.40
67194;DHT22;54121;53.508;49.422;2023-05-21T05:31:36;46.40;4.40
67194;DHT22;54121;53.508;49.422;2023-05-21T05:34:02;45.70;5.50
67194;DHT22;54121;53.508;49.422;2023-05-21T05:36:29;45.60;6.70
67194;DHT22;54121;53.508;49.422;2023-05-21T05:38:56;46.00;5.20
67194;DHT22;54121;53.508;49.422;2023-05-21T05:41:23;47.70;4.50
67194;DHT22;54121;53.508;49.422;2023-05-21T05:43:49;47.10;3.90
67194;DHT22;54121;53.508;49.422;2023-05-21T05:46:15;46.20;4.80
67194;DHT22;54121;53.508;49.422;2023-05-21T05:48:42;47.00;4.70
67194;DHT22;54121;53.508;49.422;2023-05-21T05:51:08;46.80;4.80
67194;DHT22;54121;53.508;49.422;2023-05-21T05:53:34;47.80;3.90
67194;DHT22;54121;53.508;49.422;2023-05-21T05:56:00;47.80;3.80
67194;DHT22;54121;53.508;49.422;2023-05-21T05:58:28;48.90;2.70
67194;DHT22;54121;53.508;49.422;2023-05-21T06:00:55;49.00;2.50
67194;DHT22;54121;53.508;49.422;2023-05-21T06:03:22;48.50;2.60
67194;DHT22;54121;53.508;49.422;2023-05-21T06:05:48;48.60;2.40
67194;DHT22;54121;53.508;49.422;2023-05-21T06:08:15;47.40;2.70
67194;DHT22;54121;53.508;49.422;2023-05-21T06:10:41;47.10;2.70
67194;DHT22;54121;53.508;49.422;2023-05-21T06:13:07;47.80;2.90
67194;DHT22;54121;53.508;49.422;2023-05-21T06:15:34;47.40;2.80
67194;DHT22;54121;53.508;49.422;2023-05-21T06:18:00;47.90;2.10
67194;DHT22;54121;53.508;49.422;2023-05-21T06:20:27;47.70;2.40
67194;DHT22;54121;53.508;49.422;2023-05-21T06:22:54;48.50;1.50
67194;DHT22;54121;53.508;49.422;2023-05-21T06:25:21;47.80;1.60
67194;DHT22;54121;53.508;49.422;2023-05-21T06:27:47;47.20;1.90
67194;DHT22;54121;53.508;49.422;2023-05-21T06:30:14;48.30;1.40
67194;DHT22;54121;53.508;49.422;2023-05-21T06:32:41;49.20;1.00
67194;DHT22;54121;53.508;49.422;2023-05-21T06:35:08;47.90;1.40
67194;DHT22;54121;53.508;49.422;2023-05-21T06:37:34;48.10;1.50
67194;DHT22;54121;53.508;49.422;2023-05-21T06:40:01;47.10;1.80
67194;DHT22;54121;53.508;49.422;2023-05-21T06:42:27;47.20;1.80
67194;DHT22;54121;53.508;49.422;2023-05-21T06:44:53;48.20;1.30
67194;DHT22;54121;53.508;49.422;2023-05-21T06:47:20;47.60;1.30
67194;DHT22;54121;53.508;49.422;2023-05-21T06:49:46;47.40;1.30
67194;DHT22;54121;53.508;49.422;2023-05-21T06:52:12;47.20;1.00
67194;DHT22;54121;53.508;49.422;2023-05-21T06:54:39;47.00;1.60
67194;DHT22;54121;53.508;49.422;2023-05-21T06:57:05;47.10;1.00
67194;DHT22;54121;53.508;49.422;2023-05-21T06:59:33;47.10;1.00
67194;DHT22;54121;53.508;49.422;2023-05-21T07:01:59;48.50;1.00
67194;DHT22;54121;53.508;49.422;2023-05-21T07:04:26;47.40;1.00
67194;DHT22;54121;53.508;49.422;2023-05-21T07:06:52;47.10;1.00
67194;DHT22;54121;53.508;49.422;2023-05-21T07:09:19;48.10;1.00
67194;DHT22;54121;53.508;49.422;2023-05-21T07:11:45;47.00;1.00
67194;DHT22;54121;53.508;49.422;2023-05-21T07:14:11;46.60;1.10
67194;DHT22;54121;53.508;49.422;2023-05-21T07:16:38;47.20;1.00
67194;DHT22;54121;53.508;49.422;2023-05-21T07:19:04;46.80;1.10
67194;DHT22;54121;53.508;49.422;2023-05-21T07:21:30;46.30;1.00
67194;DHT22;54121;53.508;49.422;2023-05-21T07:23:57;47.00;1.00
67194;DHT22;54121;53.508;49.422;2023-05-21T07:26:24;46.50;1.00
67194;DHT22;54121;53.508;49.422;2023-05-21T07:28:51;46.90;1.00
67194;DHT22;54121;53.508;49.422;2023-05-21T07:31:17;47.00;1.00
67194;DHT22;54121;53.508;49.422;2023-05-21T07:33:44;47.30;1.00
67194;DHT22;54121;53.508;49.422;2023-05-21T07:36:10;47.50;1.00
67194;DHT22;54121;53.508;49.422;2023-05-21T07:38:36;47.00;1.00
67194;DHT22;54121;53.508;49.422;2023-05-21T07:41:05;47.40;1.00
67194;DHT22;54121;53.508;49.422;2023-05-21T07:43:31;46.90;1.00
67194;DHT22;54121;53.508;49.422;2023-05-21T07:45:58;46.50;1.00
67194;DHT22;54121;53.508;49.422;2023-05-21T07:48:24;45.60;1.00
67194;DHT22;54121;53.508;49.422;2023-05-21T07:50:51;44.80;1.00
67194;DHT22;54121;53.508;49.422;2023-05-21T07:53:18;44.80;1.00
67194;DHT22;54121;53.508;49.422;2023-05-21T07:55:45;44.70;1.00
67194;DHT22;54121;53.508;49.422;2023-05-21T07:58:15;45.10;1.00
67194;DHT22;54121;53.508;49.422;2023-05-21T08:00:43;45.10;1.00
67194;DHT22;54121;53.508;49.422;2023-05-21T08:03:10;44.90;1.00
67194;DHT22;54121;53.508;49.422;2023-05-21T08:05:41;44.50;1.00
67194;DHT22;54121;53.508;49.422;2023-05-21T08:08:10;44.50;1.00
67194;DHT22;54121;53.508;49.422;2023-05-21T08:10:37;44.90;1.00
67194;DHT22;54121;53.508;49.422;2023-05-21T08:13:04;45.00;1.00
67194;DHT22;54121;53.508;49.422;2023-05-21T08:15:30;44.50;1.00
67194;DHT22;54121;53.508;49.422;2023-05-21T08:17:56;44.50;1.00
67194;DHT22;54121;53.508;49.422;2023-05-21T08:20:23;45.10;1.00
67194;DHT22;54121;53.508;49.422;2023-05-21T08:22:49;44.70;1.00
67194;DHT22;54121;53.508;49.422;2023-05-21T08:25:16;44.60;1.00
67194;DHT22;54121;53.508;49.422;2023-05-21T08:27:42;44.40;1.40
67194;DHT22;54121;53.508;49.422;2023-05-21T08:30:08;44.20;1.50
67194;DHT22;54121;53.508;49.422;2023-05-21T08:32:37;43.20;1.10
67194;DHT22;54121;53.508;49.422;2023-05-21T08:35:04;43.50;1.20
67194;DHT22;54121;53.508;49.422;2023-05-21T08:37:31;43.80;2.00
67194;DHT22;54121;53.508;49.422;2023-05-21T08:39:57;44.20;1.70
67194;DHT22;54121;53.508;49.422;2023-05-21T08:42:42;44.40;1.80
67194;DHT22;54121;53.508;49.422;2023-05-21T08:45:11;45.20;1.50
67194;DHT22;54121;53.508;49.422;2023-05-21T08:47:42;45.90;1.40
67194;DHT22;54121;53.508;49.422;2023-05-21T08:50:21;45.60;1.70
67194;DHT22;54121;53.508;49.422;2023-05-21T08:52:48;45.00;2.10
67194;DHT22;54121;53.508;49.422;2023-05-21T08:55:15;44.80;1.80
67194;DHT22;54121;53.508;49.422;2023-05-21T08:57:42;44.80;1.80
67194;DHT22;54121;53.508;49.422;2023-05-21T09:00:09;45.00;1.90
67194;DHT22;54121;53.508;49.422;2023-05-21T09:02:36;45.40;1.90
67194;DHT22;54121;53.508;49.422;2023-05-21T09:05:05;45.40;1.60
67194;DHT22;54121;53.508;49.422;2023-05-21T09:07:37;44.40;1.80
67194;DHT22;54121;53.508;49.422;2023-05-21T09:10:07;44.40;1.90
67194;DHT22;54121;53.508;49.422;2023-05-21T09:12:37;44.40;2.10
67194;DHT22;54121;53.508;49.422;2023-05-21T09:15:03;45.40;1.80
67194;DHT22;54121;53.508;49.422;2023-05-21T09:17:30;45.30;1.90
67194;DHT22;54121;53.508;49.422;2023-05-21T09:22:44;46.50;1.10
67194;DHT22;54121;53.508;49.422;2023-05-21T09:25:14;46.30;1.30
67194;DHT22;54121;53.508;49.422;2023-05-21T09:27:41;46.10;1.30
67194;DHT22;54121;53.508;49.422;2023-05-21T09:30:08;46.00;1.40
67194;DHT22;54121;53.508;49.422;2023-05-21T09:32:35;46.60;1.00
67194;DHT22;54121;53.508;49.422;2023-05-21T09:35:05;45.70;1.10
67194;DHT22;54121;53.508;49.422;2023-05-21T09:37:35;46.00;1.00
67194;DHT22;54121;53.508;49.422;2023-05-21T09:40:08;45.80;1.10
67194;DHT22;54121;53.508;49.422;2023-05-21T09:42:36;46.30;1.00
67194;DHT22;54121;53.508;49.422;2023-05-21T09:45:02;45.20;1.00
67194;DHT22;54121;53.508;49.422;2023-05-21T09:47:29;46.20;1.50
67194;DHT22;54121;53.508;49.422;2023-05-21T09:49:59;46.00;1.10
67194;DHT22;54121;53.508;49.422;2023-05-21T09:52:26;46.30;1.00
67194;DHT22;54121;53.508;49.422;2023-05-21T09:54:53;45.50;1.00
67194;DHT22;54121;53.508;49.422;2023-05-21T09:57:23;46.80;1.00
67194;DHT22;54121;53.508;49.422;2023-05-21T09:59:49;47.00;1.00
67194;DHT22;54121;53.508;49.422;2023-05-21T10:02:19;47.00;1.00
67194;DHT22;54121;53.508;49.422;2023-05-21T10:04:49;46.90;1.00
67194;DHT22;54121;53.508;49.422;2023-05-21T10:07:17;47.30;1.00
67194;DHT22;54121;53.508;49.422;2023-05-21T10:09:46;47.70;1.00
67194;DHT22;54121;53.508;49.422;2023-05-21T10:12:14;47.80;1.00
67194;DHT22;54121;53.508;49.422;2023-05-21T10:14:41;47.20;1.00
67194;DHT22;54121;53.508;49.422;2023-05-21T10:17:10;47.70;1.00
67194;DHT22;54121;53.508;49.422;2023-05-21T10:19:37;47.00;1.00
67194;DHT22;54121;53.508;49.422;2023-05-21T10:22:04;46.80;1.00
67194;DHT22;54121;53.508;49.422;2023-05-21T10:24:31;47.80;1.00
67194;DHT22;54121;53.508;49.422;2023-05-21T10:26:58;47.30;1.00
67194;DHT22;54121;53.508;49.422;2023-05-21T10:29:25;46.90;1.00
67194;DHT22;54121;53.508;49.422;2023-05-21T10:31:51;47.60;1.00
67194;DHT22;54121;53.508;49.422;2023-05-21T10:34:18;48.00;1.00
67194;DHT22;54121;53.508;49.422;2023-05-21T10:36:44;47.90;1.00
67194;DHT22;54121;53.508;49.422;2023-05-21T10:39:11;48.50;1.00
67194;DHT22;54121;53.508;49.422;2023-05-21T10:41:41;48.80;1.00
67194;DHT22;54121;53.508;49.422;2023-05-21T10:44:49;48.10;1.00
67194;DHT22;54121;53.508;49.422;2023-05-21T10:52:26;49.80;1.00
67194;DHT22;54121;53.508;49.422;2023-05-21T10:55:10;49.50;1.00
67194;DHT22;54121;53.508;49.422;2023-05-21T11:00:14;48.40;1.00
67194;DHT22;54121;53.508;49.422;2023-05-21T11:02:43;48.50;1.00
67194;DHT22;54121;53.508;49.422;2023-05-21T11:05:10;48.40;1.00
67194;DHT22;54121;53.508;49.422;2023-05-21T11:07:50;48.90;1.00
67194;DHT22;54121;53.508;49.422;2023-05-21T11:10:31;49.70;1.00
67194;DHT22;54121;53.508;49.422;2023-05-21T11:13:05;48.70;1.00
67194;DHT22;54121;53.508;49.422;2023-05-21T11:16:01;48.40;1.00
67194;DHT22;54121;53.508;49.422;2023-05-21T11:18:18;49.20;1.00
67194;DHT22;54121;53.508;49.422;2023-05-21T11:20:49;49.40;1.00
67194;DHT22;54121;53.508;49.422;2023-05-21T11:23:16;49.30;1.00
67194;DHT22;54121;53.508;49.422;2023-05-21T11:25:42;50.50;1.00
67194;DHT22;54121;53.508;49.422;2023-05-21T11:28:08;50.30;1.00
67194;DHT22;54121;53.508;49.422;2023-05-21T11:30:35;49.50;1.00
67194;DHT22;54121;53.508;49.422;2023-05-21T11:38:16;50.70;1.00
67194;DHT22;54121;53.508;49.422;2023-05-21T11:40:49;51.00;1.00
67194;DHT22;54121;53.508;49.422;2023-05-21T11:43:18;51.40;1.00
67194;DHT22;54121;53.508;49.422;2023-05-21T11:45:45;50.70;1.00
67194;DHT22;54121;53.508;49.422;2023-05-21T11:48:12;52.00;1.00
67194;DHT22;54121;53.508;49.422;2023-05-21T11:50:39;51.30;1.00
67194;DHT22;54121;53.508;49.422;2023-05-21T11:53:07;50.90;1.00
67194;DHT22;54121;53.508;49.422;2023-05-21T11:55:36;49.70;1.00
67194;DHT22;54121;53.508;49.422;2023-05-21T11:58:03;51.00;1.00
67194;DHT22;54121;53.508;49.422;2023-05-21T12:00:30;51.10;1.00
67194;DHT22;54121;53.508;49.422;2023-05-21T12:03:03;51.50;1.00
67194;DHT22;54121;53.508;49.422;2023-05-21T12:05:30;52.20;1.00
67194;DHT22;54121;53.508;49.422;2023-05-21T12:07:56;51.60;1.00
67194;DHT22;54121;53.508;49.422;2023-05-21T12:10:23;51.90;1.00
67194;DHT22;54121;53.508;49.422;2023-05-21T12:12:49;51.80;1.00
67194;DHT22;54121;53.508;49.422;2023-05-21T12:15:16;51.90;1.00
67194;DHT22;54121;53.508;49.422;2023-05-21T12:17:42;50.50;1.00
67194;DHT22;54121;53.508;49.422;2023-05-21T12:20:08;51.40;1.00
67194;DHT22;54121;53.508;49.422;2023-05-21T12:22:40;51.40;1.00
67194;DHT22;54121;53.508;49.422;2023-05-21T12:25:08;52.10;1.00
67194;DHT22;54121;53.508;49.422;2023-05-21T12:27:35;52.10;1.00
67194;DHT22;54121;53.508;49.422;2023-05-21T12:30:02;50.60;1.00
67194;DHT22;54121;53.508;49.422;2023-05-21T12:32:28;50.90;1.00
67194;DHT22;54121;53.508;49.422;2023-05-21T12:34:55;50.60;1.00
67194;DHT22;54121;53.508;49.422;2023-05-21T12:37:22;51.00;1.00
67194;DHT22;54121;53.508;49.422;2023-05-21T12:39:50;51.70;1.00
67194;DHT22;54121;53.508;49.422;2023-05-21T12:42:23;53.00;1.00
67194;DHT22;54121;53.508;49.422;2023-05-21T12:44:50;51.50;1.00
67194;DHT22;54121;53.508;49.422;2023-05-21T12:47:17;49.70;1.00
67194;DHT22;54121;53.508;49.422;2023-05-21T12:49:44;51.60;1.00
67194;DHT22;54121;53.508;49.422;2023-05-21T12:52:13;51.00;1.00
67194;DHT22;54121;53.508;49.422;2023-05-21T12:54:40;52.00;1.00
67194;DHT22;54121;53.508;49.422;2023-05-21T12:57:17;50.90;1.00
67194;DHT22;54121;53.508;49.422;2023-05-21T12:59:47;51.00;1.00
67194;DHT22;54121;53.508;49.422;2023-05-21T13:02:20;52.50;1.00
67194;DHT22;54121;53.508;49.422;2023-05-21T13:04:47;52.70;1.00
67194;DHT22;54121;53.508;49.422;2023-05-21T13:07:16;52.00;1.00
67194;DHT22;54121;53.508;49.422;2023-05-21T13:09:43;50.90;1.00
67194;DHT22;54121;53.508;49.422;2023-05-21T13:12:10;51.90;1.00
67194;DHT22;54121;53.508;49.422;2023-05-21T13:14:36;52.70;1.00
67194;DHT22;54121;53.508;49.422;2023-05-21T13:17:02;52.00;1.00
67194;DHT22;54121;53.508;49.422;2023-05-21T13:19:28;51.60;1.00
67194;DHT22;54121;53.508;49.422;2023-05-21T13:21:54;51.10;1.00
67194;DHT22;54121;53.508;49.422;2023-05-21T13:24:21;51.30;1.00
67194;DHT22;54121;53.508;49.422;2023-05-21T13:26:47;51.40;1.00
67194;DHT22;54121;53.508;49.422;2023-05-21T13:29:14;50.60;1.00
67194;DHT22;54121;53.508;49.422;2023-05-21T13:31:42;50.20;1.00
67194;DHT22;54121;53.508;49.422;2023-05-21T13:34:10;49.20;1.00
67194;DHT22;54121;53.508;49.422;2023-05-21T13:36:36;50.30;1.00
67194;DHT22;54121;53.508;49.422;2023-05-21T13:39:02;51.90;1.00
67194;DHT22;54121;53.508;49.422;2023-05-21T13:41:29;51.90;1.00
67194;DHT22;54121;53.508;49.422;2023-05-21T13:43:55;51.50;1.00
67194;DHT22;54121;53.508;49.422;2023-05-21T13:46:21;51.40;1.00
67194;DHT22;54121;53.508;49.422;2023-05-21T13:48:49;51.70;1.00
67194;DHT22;54121;53.508;49.422;2023-05-21T13:51:15;50.90;1.00
67194;DHT22;54121;53.508;49.422;2023-05-21T13:53:41;51.90;1.00
67194;DHT22;54121;53.508;49.422;2023-05-21T13:56:08;53.00;1.00
67194;DHT22;54121;53.508;49.422;2023-05-21T13:58:34;53.50;1.00
67194;DHT22;54121;53.508;49.422;2023-05-21T14:01:01;51.90;1.00
67194;DHT22;54121;53.508;49.422;2023-05-21T14:03:27;50.80;1.00
67194;DHT22;54121;53.508;49.422;2023-05-21T14:05:56;51.40;1.00
67194;DHT22;54121;53.508;49.422;2023-05-21T14:08:23;51.20;1.00
67194;DHT22;54121;53.508;49.422;2023-05-21T14:10:50;51.10;1.00
67194;DHT22;54121;53.508;49.422;2023-05-21T14:13:17;49.90;1.00
67194;DHT22;54121;53.508;49.422;2023-05-21T14:15:43;49.70;1.00
67194;DHT22;54121;53.508;49.422;2023-05-21T14:18:10;49.90;1.00
67194;DHT22;54121;53.508;49.422;2023-05-21T14:20:37;49.60;1.00
67194;DHT22;54121;53.508;49.422;2023-05-21T14:23:04;50.90;1.00
67194;DHT22;54121;53.508;49.422;2023-05-21T14:25:30;51.40;1.00
67194;DHT22;54121;53.508;49.422;2023-05-21T14:27:57;49.90;1.00
67194;DHT22;54121;53.508;49.422;2023-05-21T14:30:23;49.50;1.00
67194;DHT22;54121;53.508;49.422;2023-05-21T14:32:50;49.10;1.00
67194;DHT22;54121;53.508;49.422;2023-05-21T14:35:17;49.50;1.00
67194;DHT22;54121;53.508;49.422;2023-05-21T14:37:43;49.20;1.00
67194;DHT22;54121;53.508;49.422;2023-05-21T14:40:10;49.30;1.00
67194;DHT22;54121;53.508;49.422;2023-05-21T14:42:40;49.80;1.00
67194;DHT22;54121;53.508;49.422;2023-05-21T14:45:32;50.60;1.00
67194;DHT22;54121;53.508;49.422;2023-05-21T14:48:01;50.90;1.00
67194;DHT22;54121;53.508;49.422;2023-05-21T14:50:33;50.90;1.00
67194;DHT22;54121;53.508;49.422;2023-05-21T14:53:07;50.10;1.00
67194;DHT22;54121;53.508;49.422;2023-05-21T14:55:34;49.10;1.00
67194;DHT22;54121;53.508;49.422;2023-05-21T14:58:02;48.90;1.00
67194;DHT22;54121;53.508;49.422;2023-05-21T15:00:29;47.10;1.00
67194;DHT22;54121;53.508;49.422;2023-05-21T15:02:57;49.00;1.00
67194;DHT22;54121;53.508;49.422;2023-05-21T15:05:24;48.30;1.00
67194;DHT22;54121;53.508;49.422;2023-05-21T15:07:50;47.40;1.00
67194;DHT22;54121;53.508;49.422;2023-05-21T15:10:17;46.40;1.00
67194;DHT22;54121;53.508;49.422;2023-05-21T15:12:43;46.80;1.00
67194;DHT22;54121;53.508;49.422;2023-05-21T15:15:10;45.30;1.00
67194;DHT22;54121;53.508;49.422;2023-05-21T15:17:37;44.40;1.00
67194;DHT22;54121;53.508;49.422;2023-05-21T15:20:04;43.70;1.00
67194;DHT22;54121;53.508;49.422;2023-05-21T15:22:31;45.20;1.00
67194;DHT22;54121;53.508;49.422;2023-05-21T15:24:58;45.30;1.00
67194;DHT22;54121;53.508;49.422;2023-05-21T15:27:25;45.00;1.00
67194;DHT22;54121;53.508;49.422;2023-05-21T15:29:52;45.50;1.00
67194;DHT22;54121;53.508;49.422;2023-05-21T15:32:19;44.10;1.00
67194;DHT22;54121;53.508;49.422;2023-05-21T15:34:48;42.30;1.00
67194;DHT22;54121;53.508;49.422;2023-05-21T15:37:15;42.40;1.30
67194;DHT22;54121;53.508;49.422;2023-05-21T15:39:42;42.20;2.60
67194;DHT22;54121;53.508;49.422;2023-05-21T15:42:09;42.50;1.30
67194;DHT22;54121;53.508;49.422;2023-05-21T15:44:37;42.00;1.50
67194;DHT22;54121;53.508;49.422;2023-05-21T15:47:04;41.50;1.60